createdAt,value
2018-04-06T00:00:21.234Z,102368.67
2018-04-06T00:02:48.108Z,102370.83
2018-04-06T00:05:16.079Z,102373.41
2018-04-06T00:07:43.693Z,102375.16
2018-04-06T00:10:10.574Z,102379.20
2018-04-06T00:12:37.482Z,102384.34
2018-04-06T00:15:04.359Z,102385.16
2018-04-06T00:17:31.563Z,102383.94
2018-04-06T00:19:58.472Z,102389.61
2018-04-06T00:22:26.117Z,102387.99
2018-04-06T00:24:53.043Z,102392.97
2018-04-06T00:27:19.915Z,102396.75
2018-04-06T00:29:46.822Z,102394.72
2018-04-06T00:32:13.741Z,102393.50
2018-04-06T00:34:40.646Z,102394.19
2018-04-06T00:37:07.519Z,102396.89
2018-04-06T00:39:34.450Z,102390.16
2018-04-06T00:42:01.319Z,102393.66
2018-04-06T00:44:28.270Z,102399.06
2018-04-06T00:46:55.175Z,102396.61
2018-04-06T00:49:22.059Z,102402.44
2018-04-06T00:51:49.051Z,102409.05
2018-04-06T00:54:15.970Z,102407.97
2018-04-06T00:56:42.928Z,102415.23
2018-04-06T00:59:09.826Z,102411.20
2018-04-06T01:01:37.511Z,102412.14
2018-04-06T01:04:04.416Z,102415.23
2018-04-06T01:06:31.439Z,102422.53
2018-04-06T01:08:58.300Z,102423.61
2018-04-06T01:11:25.172Z,102413.88
2018-04-06T01:13:53.120Z,102412.39
2018-04-06T01:16:20.012Z,102420.63
2018-04-06T01:18:46.932Z,102421.02
2018-04-06T01:21:14.583Z,102426.80
2018-04-06T01:23:41.779Z,102426.00
2018-04-06T01:26:08.656Z,102426.80
2018-04-06T01:28:35.558Z,102420.08
2018-04-06T01:31:02.504Z,102422.09
2018-04-06T01:33:29.415Z,102418.96
2018-04-06T01:35:56.332Z,102419.12
2018-04-06T01:38:23.204Z,102423.83
2018-04-06T01:40:50.226Z,102419.89
2018-04-06T01:43:17.080Z,102419.20
2018-04-06T01:45:44.687Z,102424.72
2018-04-06T01:48:12.677Z,102434.09
2018-04-06T01:50:39.570Z,102439.72
2018-04-06T01:53:06.439Z,102441.96
2018-04-06T01:55:34.104Z,102442.02
2018-04-06T01:58:01.766Z,102440.72
2018-04-06T02:00:29.407Z,102441.93
2018-04-06T02:02:56.326Z,102442.44
2018-04-06T02:05:23.237Z,102447.83
2018-04-06T02:07:50.919Z,102443.21
2018-04-06T02:10:17.907Z,102448.09
2018-04-06T02:12:44.825Z,102449.58
2018-04-06T02:15:11.694Z,102454.30
2018-04-06T02:17:38.629Z,102451.63
2018-04-06T02:20:05.533Z,102454.14
2018-04-06T02:22:32.453Z,102455.66
2018-04-06T02:24:59.367Z,102455.38
2018-04-06T02:27:26.238Z,102457.52
2018-04-06T02:29:53.214Z,102453.84
2018-04-06T02:32:20.086Z,102456.17
2018-04-06T02:34:47.003Z,102455.64
2018-04-06T02:37:14.597Z,102462.33
2018-04-06T02:39:41.475Z,102463.02
2018-04-06T02:42:08.430Z,102463.14
2018-04-06T02:44:35.292Z,102462.20
2018-04-06T02:47:03.252Z,102463.55
2018-04-06T02:49:30.884Z,102467.34
2018-04-06T02:51:58.534Z,102464.30
2018-04-06T02:54:25.446Z,102467.20
2018-04-06T02:56:52.332Z,102459.45
2018-04-06T02:59:19.251Z,102465.65
2018-04-06T03:01:46.190Z,102458.19
2018-04-06T03:04:13.079Z,102464.73
2018-04-06T03:06:40.048Z,102465.62
2018-04-06T03:09:07.699Z,102462.98
2018-04-06T03:11:34.613Z,102469.52
2018-04-06T03:14:01.548Z,102464.86
2018-04-06T03:16:29.012Z,102466.97
2018-04-06T03:18:55.967Z,102468.88
2018-04-06T03:21:22.887Z,102470.86
2018-04-06T03:23:49.794Z,102475.19
2018-04-06T03:26:16.716Z,102469.25
2018-04-06T03:28:43.663Z,102470.53
2018-04-06T03:31:11.268Z,102473.26
2018-04-06T03:33:38.919Z,102471.36
2018-04-06T03:36:06.540Z,102470.27
2018-04-06T03:38:33.488Z,102472.75
2018-04-06T03:41:00.417Z,102468.48
2018-04-06T03:43:27.567Z,102471.84
2018-04-06T03:45:54.468Z,102470.20
2018-04-06T03:48:21.388Z,102480.38
2018-04-06T03:50:48.397Z,102481.46
2018-04-06T03:53:15.281Z,102469.53
2018-04-06T03:55:42.199Z,102476.03
2018-04-06T03:58:09.068Z,102477.91
2018-04-06T04:00:36.003Z,102478.55
2018-04-06T04:03:02.902Z,102482.17
2018-04-06T04:05:30.571Z,102481.98
2018-04-06T04:07:58.176Z,102483.59
2018-04-06T04:10:25.088Z,102491.55
2018-04-06T04:12:52.045Z,102499.62
2018-04-06T04:15:18.922Z,102496.00
2018-04-06T04:17:45.860Z,102503.41
2018-04-06T04:20:12.792Z,102503.40
2018-04-06T04:22:39.754Z,102497.61
2018-04-06T04:25:06.679Z,102496.00
2018-04-06T04:27:33.549Z,102496.00
2018-04-06T04:30:00.468Z,102492.49
2018-04-06T04:32:27.372Z,102496.94
2018-04-06T04:34:54.277Z,102501.23
2018-04-06T04:37:21.137Z,102498.44
2018-04-06T04:39:48.045Z,102501.76
2018-04-06T04:42:14.962Z,102508.78
2018-04-06T04:44:48.635Z,102512.67
2018-04-06T04:47:15.551Z,102519.66
2018-04-06T04:49:42.689Z,102522.65
2018-04-06T04:52:09.611Z,102520.74
2018-04-06T04:54:37.213Z,102516.82
2018-04-06T04:57:04.138Z,102519.51
2018-04-06T04:59:31.022Z,102524.07
2018-04-06T05:01:57.934Z,102525.12
2018-04-06T05:04:24.835Z,102528.26
2018-04-06T05:06:51.760Z,102521.20
2018-04-06T05:09:18.632Z,102520.67
2018-04-06T05:11:45.536Z,102521.37
2018-04-06T05:14:12.397Z,102519.14
2018-04-06T05:16:39.282Z,102517.53
2018-04-06T05:19:06.980Z,102518.98
2018-04-06T05:21:33.858Z,102529.01
2018-04-06T05:24:00.722Z,102525.79
2018-04-06T05:26:27.622Z,102525.64
2018-04-06T05:28:54.581Z,102533.27
2018-04-06T05:31:21.492Z,102529.53
2018-04-06T05:33:48.360Z,102528.75
2018-04-06T05:36:15.278Z,102533.27
2018-04-06T05:38:42.512Z,102530.34
2018-04-06T05:41:09.662Z,102541.38
2018-04-06T05:43:37.317Z,102530.79
2018-04-06T05:46:04.225Z,102538.34
2018-04-06T05:48:31.176Z,102528.69
2018-04-06T05:50:58.045Z,102538.08
2018-04-06T05:53:24.962Z,102535.63
2018-04-06T05:55:51.856Z,102546.35
2018-04-06T05:58:18.812Z,102539.32
2018-04-06T06:00:46.443Z,102541.73
2018-04-06T06:03:13.349Z,102550.48
2018-04-06T06:05:40.222Z,102547.82
2018-04-06T06:08:07.413Z,102556.84
2018-04-06T06:10:35.073Z,102544.59
2018-04-06T06:13:02.691Z,102555.22
2018-04-06T06:15:29.597Z,102553.01
2018-04-06T06:17:57.216Z,102556.95
2018-04-06T06:20:24.214Z,102561.00
2018-04-06T06:22:51.128Z,102563.20
2018-04-06T06:25:18.288Z,102567.73
2018-04-06T06:27:45.944Z,102565.85
2018-04-06T06:30:13.852Z,102553.47
2018-04-06T06:32:40.790Z,102565.22
2018-04-06T06:35:07.671Z,102569.80
2018-04-06T06:37:34.623Z,102561.05
2018-04-06T06:40:01.519Z,102561.59
2018-04-06T06:42:28.430Z,102563.36
2018-04-06T06:44:55.330Z,102550.09
2018-04-06T06:47:22.298Z,102553.10
2018-04-06T06:49:49.204Z,102558.63
2018-04-06T06:52:16.542Z,102555.78
2018-04-06T06:54:44.166Z,102556.97
2018-04-06T06:57:11.040Z,102553.30
2018-04-06T06:59:38.698Z,102556.61
2018-04-06T07:02:06.319Z,102560.16
2018-04-06T07:04:33.234Z,102563.60
2018-04-06T07:07:00.110Z,102552.30
2018-04-06T07:09:27.070Z,102555.50
2018-04-06T07:11:54.059Z,102550.98
2018-04-06T07:14:21.736Z,102544.66
2018-04-06T07:16:48.646Z,102538.30
2018-04-06T07:19:15.553Z,102542.27
2018-04-06T07:21:42.435Z,102535.59
2018-04-06T07:24:09.338Z,102533.58
2018-04-06T07:26:36.303Z,102537.68
2018-04-06T07:29:03.235Z,102538.83
2018-04-06T07:31:30.199Z,102535.19
2018-04-06T07:33:57.935Z,102541.31
2018-04-06T07:36:24.886Z,102540.64
2018-04-06T07:38:51.762Z,102541.47
2018-04-06T07:41:18.941Z,102526.15
2018-04-06T07:43:45.856Z,102519.05
2018-04-06T07:46:12.730Z,102517.99
2018-04-06T07:48:39.993Z,102513.68
2018-04-06T07:51:07.700Z,102519.11
2018-04-06T07:53:34.572Z,102522.14
2018-04-06T07:56:01.652Z,102508.53
2018-04-06T07:58:29.312Z,102510.59
2018-04-06T08:00:56.934Z,102503.86
2018-04-06T08:03:24.019Z,102510.66
2018-04-06T08:05:50.902Z,102501.87
2018-04-06T08:08:17.803Z,102501.39
2018-04-06T08:10:44.884Z,102506.09
2018-04-06T08:13:12.513Z,102497.45
2018-04-06T08:15:39.437Z,102495.97
2018-04-06T08:18:06.575Z,102490.70
2018-04-06T08:20:33.439Z,102492.92
2018-04-06T08:23:00.416Z,102495.77
2018-04-06T08:25:27.583Z,102509.10
2018-04-06T08:27:55.239Z,102507.82
2018-04-06T08:30:22.888Z,102513.34
2018-04-06T08:32:49.959Z,102508.95
2018-04-06T08:35:17.608Z,102521.91
2018-04-06T08:37:45.218Z,102521.19
2018-04-06T08:40:12.516Z,102525.11
2018-04-06T08:42:39.386Z,102534.36
2018-04-06T08:45:07.001Z,102538.02
2018-04-06T08:47:34.165Z,102529.56
2018-04-06T08:50:01.052Z,102533.28
2018-04-06T08:52:28.004Z,102538.31
2018-04-06T08:54:54.926Z,102543.84
2018-04-06T08:57:22.564Z,102540.82
2018-04-06T08:59:49.547Z,102537.80
2018-04-06T09:02:17.426Z,102539.46
2018-04-06T09:04:44.388Z,102546.80
2018-04-06T09:07:11.247Z,102539.72
2018-04-06T09:09:38.273Z,102538.41
2018-04-06T09:12:05.213Z,102533.34
2018-04-06T09:14:32.090Z,102539.84
2018-04-06T09:16:59.153Z,102530.09
2018-04-06T09:19:26.075Z,102533.09
2018-04-06T09:21:52.972Z,102529.31
2018-04-06T09:24:20.974Z,102528.90
2018-04-06T09:26:47.924Z,102539.75
2018-04-06T09:29:14.788Z,102544.63
2018-04-06T09:31:41.817Z,102540.03
2018-04-06T09:34:08.715Z,102546.09
2018-04-06T09:36:35.623Z,102546.98
2018-04-06T09:39:02.883Z,102553.02
2018-04-06T09:41:29.807Z,102545.03
2018-04-06T09:43:57.077Z,102546.39
2018-04-06T09:46:24.138Z,102543.64
2018-04-06T09:48:50.996Z,102535.00
2018-04-06T09:51:17.858Z,102537.99
2018-04-06T09:53:45.122Z,102534.48
2018-04-06T09:56:12.010Z,102533.20
2018-04-06T09:58:38.893Z,102535.53
2018-04-06T10:01:05.996Z,102522.97
2018-04-06T10:03:32.933Z,102528.55
2018-04-06T10:05:59.860Z,102526.84
2018-04-06T10:08:27.678Z,102521.22
2018-04-06T10:10:54.653Z,102521.33
2018-04-06T10:13:21.512Z,102521.10
2018-04-06T10:15:49.374Z,102523.86
2018-04-06T10:18:16.236Z,102522.03
2018-04-06T10:20:43.838Z,102524.22
2018-04-06T10:23:10.889Z,102517.00
2018-04-06T10:25:37.756Z,102524.38
2018-04-06T10:28:04.696Z,102517.48
2018-04-06T10:30:32.374Z,102508.15
2018-04-06T10:32:59.251Z,102509.12
2018-04-06T10:35:26.850Z,102500.06
2018-04-06T10:37:53.993Z,102499.95
2018-04-06T10:40:20.863Z,102500.13
2018-04-06T10:42:47.746Z,102493.60
2018-04-06T10:45:15.601Z,102499.08
2018-04-06T10:47:42.514Z,102495.86
2018-04-06T10:50:09.422Z,102498.02
2018-04-06T10:52:36.383Z,102497.30
2018-04-06T10:55:03.369Z,102492.88
2018-04-06T10:57:30.234Z,102494.17
2018-04-06T10:59:57.140Z,102484.86
2018-04-06T11:02:24.009Z,102480.14
2018-04-06T11:04:50.939Z,102471.05
2018-04-06T11:07:18.132Z,102466.77
2018-04-06T11:09:45.734Z,102465.50
2018-04-06T11:12:12.589Z,102461.22
2018-04-06T11:14:46.469Z,102450.77
2018-04-06T11:17:13.342Z,102451.47
2018-04-06T11:19:40.194Z,102448.70
2018-04-06T11:22:08.093Z,102448.13
2018-04-06T11:24:35.013Z,102447.72
2018-04-06T11:27:01.866Z,102447.14
2018-04-06T11:29:28.943Z,102447.14
2018-04-06T11:31:56.588Z,102446.70
2018-04-06T11:34:23.511Z,102448.81
2018-04-06T11:36:51.460Z,102455.54
2018-04-06T11:39:18.384Z,102456.80
2018-04-06T11:41:45.330Z,102445.28
2018-04-06T11:44:13.222Z,102453.16
2018-04-06T11:46:40.806Z,102448.51
2018-04-06T11:49:07.752Z,102441.39
2018-04-06T11:51:35.754Z,102441.47
2018-04-06T11:54:02.634Z,102444.42
2018-04-06T11:56:29.503Z,102437.55
2018-04-06T11:58:56.518Z,102428.16
2018-04-06T12:01:23.465Z,102422.01
2018-04-06T12:03:50.338Z,102421.35
2018-04-06T12:06:17.411Z,102416.46
2018-04-06T12:08:44.274Z,102412.16
2018-04-06T12:11:11.138Z,102403.95
2018-04-06T12:13:38.989Z,102391.91
2018-04-06T12:16:06.897Z,102397.87
2018-04-06T12:18:33.806Z,102390.89
2018-04-06T12:21:00.849Z,102384.35
2018-04-06T12:23:27.763Z,102394.01
2018-04-06T12:25:54.700Z,102384.22
2018-04-06T12:28:21.623Z,102398.69
2018-04-06T12:30:48.573Z,102389.31
2018-04-06T12:33:15.436Z,102390.14
2018-04-06T12:35:42.350Z,102388.30
2018-04-06T12:38:09.978Z,102382.71
2018-04-06T12:40:36.849Z,102378.16
2018-04-06T12:43:04.684Z,102369.30
2018-04-06T12:45:31.553Z,102371.98
2018-04-06T12:47:58.436Z,102362.84
2018-04-06T12:50:25.411Z,102359.75
2018-04-06T12:52:53.068Z,102354.98
2018-04-06T12:55:19.945Z,102349.31
2018-04-06T12:57:47.152Z,102349.50
2018-04-06T13:00:14.032Z,102347.52
2018-04-06T13:02:40.918Z,102341.16
2018-04-06T13:05:08.041Z,102337.81
2018-04-06T13:07:34.966Z,102333.97
2018-04-06T13:10:01.880Z,102332.59
2018-04-06T13:12:28.939Z,102338.59
2018-04-06T13:14:55.805Z,102328.55
2018-04-06T13:17:22.673Z,102335.52
2018-04-06T13:19:49.783Z,102326.06
2018-04-06T13:22:16.645Z,102316.47
2018-04-06T13:24:43.514Z,102329.20
2018-04-06T13:27:10.769Z,102320.03
2018-04-06T13:29:37.686Z,102322.37
2018-04-06T13:32:04.657Z,102307.27
2018-04-06T13:34:31.676Z,102309.52
2018-04-06T13:36:58.592Z,102309.72
2018-04-06T13:39:25.487Z,102306.97
2018-04-06T13:41:53.474Z,102301.32
2018-04-06T13:44:21.134Z,102291.03
2018-04-06T13:46:48.008Z,102296.25
2018-04-06T13:49:15.164Z,102301.16
2018-04-06T13:51:42.064Z,102297.33
2018-04-06T13:54:09.012Z,102305.97
2018-04-06T13:56:36.165Z,102299.90
2018-04-06T13:59:03.111Z,102298.41
2018-04-06T14:01:30.052Z,102296.91
2018-04-06T14:03:57.191Z,102297.28
2018-04-06T14:06:24.118Z,102296.58
2018-04-06T14:08:51.038Z,102299.44
2018-04-06T14:11:18.818Z,102285.35
2018-04-06T14:13:45.795Z,102279.59
2018-04-06T14:16:12.686Z,102273.09
2018-04-06T14:18:40.542Z,102260.78
2018-04-06T14:21:08.157Z,102255.70
2018-04-06T14:23:35.029Z,102263.78
2018-04-06T14:26:02.129Z,102254.36
2018-04-06T14:28:29.003Z,102242.05
2018-04-06T14:30:55.860Z,102237.48
2018-04-06T14:33:23.146Z,102232.34
2018-04-06T14:35:50.767Z,102228.58
2018-04-06T14:38:17.696Z,102221.20
2018-04-06T14:40:44.918Z,102224.38
2018-04-06T14:43:12.606Z,102214.13
2018-04-06T14:45:39.469Z,102210.47
2018-04-06T14:48:06.762Z,102203.39
2018-04-06T14:50:34.419Z,102181.39
2018-04-06T14:53:01.325Z,102171.34
2018-04-06T14:55:28.303Z,102177.55
2018-04-06T14:57:55.178Z,102179.94
2018-04-06T15:00:22.071Z,102166.20
2018-04-06T15:02:50.740Z,102164.89
2018-04-06T15:05:17.635Z,102164.23
2018-04-06T15:07:44.502Z,102164.63
2018-04-06T15:10:12.249Z,102165.05
2018-04-06T15:12:39.152Z,102162.52
2018-04-06T15:15:06.046Z,102158.39
2018-04-06T15:17:32.977Z,102151.31
2018-04-06T15:19:59.842Z,102148.42
2018-04-06T15:22:27.450Z,102139.64
2018-04-06T15:24:54.555Z,102137.75
2018-04-06T15:27:22.166Z,102147.09
2018-04-06T15:29:49.110Z,102137.64
2018-04-06T15:32:16.066Z,102148.25
2018-04-06T15:34:42.972Z,102143.22
2018-04-06T15:37:09.835Z,102148.27
2018-04-06T15:39:36.734Z,102142.63
2018-04-06T15:42:03.710Z,102136.84
2018-04-06T15:44:30.617Z,102130.60
2018-04-06T15:46:57.637Z,102120.47
2018-04-06T15:49:24.497Z,102116.70
2018-04-06T15:51:51.405Z,102109.34
2018-04-06T15:54:19.462Z,102108.93
2018-04-06T15:56:47.060Z,102102.98
2018-04-06T15:59:13.935Z,102097.45
2018-04-06T16:01:42.035Z,102099.03
2018-04-06T16:04:09.787Z,102096.94
2018-04-06T16:06:36.642Z,102089.62
2018-04-06T16:09:05.632Z,102089.38
2018-04-06T16:11:33.282Z,102085.05
2018-04-06T16:14:00.183Z,102083.57
2018-04-06T16:16:28.766Z,102077.58
2018-04-06T16:18:55.680Z,102079.51
2018-04-06T16:21:23.287Z,102075.48
2018-04-06T16:23:50.569Z,102079.44
2018-04-06T16:26:17.480Z,102077.25
2018-04-06T16:28:44.413Z,102073.97
2018-04-06T16:31:11.564Z,102077.25
2018-04-06T16:33:38.429Z,102079.54
2018-04-06T16:36:05.342Z,102069.91
2018-04-06T16:38:32.474Z,102070.86
2018-04-06T16:41:00.124Z,102071.10
2018-04-06T16:43:27.071Z,102073.63
2018-04-06T16:45:54.033Z,102073.80
2018-04-06T16:48:21.662Z,102082.30
2018-04-06T16:50:48.556Z,102077.34
2018-04-06T16:53:17.194Z,102077.62
2018-04-06T16:55:44.124Z,102072.84
2018-04-06T16:58:11.029Z,102061.82
2018-04-06T17:00:42.162Z,102069.34
2018-04-06T17:03:09.803Z,102068.64
2018-04-06T17:05:36.746Z,102065.48
2018-04-06T17:08:03.860Z,102063.21
2018-04-06T17:10:30.722Z,102069.64
2018-04-06T17:12:57.625Z,102064.33
2018-04-06T17:15:25.296Z,102067.35
2018-04-06T17:17:52.214Z,102065.22
2018-04-06T17:20:19.822Z,102064.00
2018-04-06T17:22:46.907Z,102072.22
2018-04-06T17:25:14.984Z,102065.78
2018-04-06T17:27:42.830Z,102074.09
2018-04-06T17:30:09.928Z,102071.82
2018-04-06T17:32:37.548Z,102070.36
2018-04-06T17:35:05.134Z,102069.20
2018-04-06T17:37:32.498Z,102072.15
2018-04-06T17:39:59.369Z,102069.59
2018-04-06T17:42:26.244Z,102069.01
2018-04-06T17:44:54.419Z,102064.34
2018-04-06T17:47:21.371Z,102070.13
2018-04-06T17:49:48.948Z,102074.02
2018-04-06T17:52:16.812Z,102076.69
2018-04-06T17:54:43.739Z,102072.78
2018-04-06T17:57:10.860Z,102077.22
2018-04-06T17:59:37.922Z,102078.06
2018-04-06T18:02:06.034Z,102081.45
2018-04-06T18:04:32.926Z,102084.27
2018-04-06T18:06:59.927Z,102079.62
2018-04-06T18:09:26.809Z,102081.58
2018-04-06T18:11:54.488Z,102084.72
2018-04-06T18:14:22.705Z,102080.70
2018-04-06T18:16:49.960Z,102083.63
2018-04-06T18:19:16.900Z,102079.02
2018-04-06T18:21:44.961Z,102077.11
2018-04-06T18:24:12.636Z,102078.88
2018-04-06T18:26:39.560Z,102076.95
2018-04-06T18:29:06.595Z,102074.37
2018-04-06T18:31:33.598Z,102074.82
2018-04-06T18:34:00.461Z,102077.37
2018-04-06T18:36:28.190Z,102080.44
2018-04-06T18:38:55.243Z,102072.35
2018-04-06T18:41:22.356Z,102077.41
2018-04-06T18:43:49.512Z,102067.15
2018-04-06T18:46:16.392Z,102070.06
2018-04-06T18:48:43.272Z,102072.08
2018-04-06T18:51:11.129Z,102078.72
2018-04-06T18:53:38.195Z,102076.51
2018-04-06T18:56:05.502Z,102071.27
2018-04-06T18:58:32.683Z,102076.25
2018-04-06T19:00:59.582Z,102076.34
2018-04-06T19:03:26.618Z,102082.84
2018-04-06T19:05:53.552Z,102079.00
2018-04-06T19:08:20.657Z,102081.83
2018-04-06T19:10:47.596Z,102074.22
2018-04-06T19:13:14.775Z,102071.30
2018-04-06T19:15:41.817Z,102058.80
2018-04-06T19:18:08.732Z,102056.47
2018-04-06T19:20:35.837Z,102063.38
2018-04-06T19:23:03.535Z,102071.53
2018-04-06T19:25:30.402Z,102066.80
2018-04-06T19:27:57.325Z,102073.78
2018-04-06T19:30:24.385Z,102072.44
2018-04-06T19:32:51.241Z,102069.22
2018-04-06T19:35:18.331Z,102059.19
2018-04-06T19:37:45.942Z,102063.91
2018-04-06T19:40:12.820Z,102056.77
2018-04-06T19:42:39.739Z,102050.35
2018-04-06T19:45:06.651Z,102042.80
2018-04-06T19:47:33.525Z,102037.44
2018-04-06T19:55:06.213Z,102044.29
2018-04-06T19:57:33.116Z,102043.57
2018-04-06T20:00:00.032Z,102036.49
2018-04-06T20:02:30.790Z,102034.43
2018-04-06T20:04:57.715Z,102033.77
2018-04-06T20:07:24.626Z,102031.41
2018-04-06T20:09:51.546Z,102024.19
2018-04-06T20:12:18.406Z,102021.05
2018-04-06T20:14:51.333Z,102011.03
2018-04-06T20:17:18.422Z,102010.55
2018-04-06T20:19:45.322Z,101995.48
2018-04-06T20:22:12.230Z,101993.60
2018-04-06T20:24:39.602Z,101984.75
2018-04-06T20:27:06.472Z,101992.73
2018-04-06T20:29:33.394Z,101992.91
2018-04-06T20:32:00.464Z,101989.44
2018-04-06T20:34:27.421Z,101985.84
2018-04-06T20:36:54.323Z,101975.92
2018-04-06T20:39:22.529Z,101966.55
2018-04-06T20:41:49.607Z,101961.19
2018-04-06T20:44:16.481Z,101960.03
2018-04-06T20:46:43.825Z,101963.77
2018-04-06T20:49:11.489Z,101972.33
2018-04-06T20:51:38.354Z,101967.98
2018-04-06T20:54:05.494Z,101956.04
2018-04-06T20:56:33.093Z,101954.94
2018-04-06T20:58:59.994Z,101953.67
2018-04-06T21:04:00.958Z,101945.22
2018-04-06T21:06:27.914Z,101937.29
2018-04-06T21:08:55.532Z,101936.48
2018-04-06T21:11:22.678Z,101929.59
2018-04-06T21:13:49.584Z,101925.69
2018-04-06T21:16:17.184Z,101921.27
2018-04-06T21:18:44.189Z,101921.76
2018-04-06T21:21:11.806Z,101914.55
2018-04-06T21:23:38.675Z,101912.59
2018-04-06T21:28:39.603Z,101913.89
2018-04-06T21:31:06.603Z,101907.23
2018-04-06T21:33:34.252Z,101896.91
2018-04-06T21:36:01.302Z,101899.72
2018-04-06T21:38:28.210Z,101896.50
2018-04-06T21:40:55.086Z,101891.04
2018-04-06T21:43:22.286Z,101884.59
2018-04-06T21:45:49.182Z,101882.42
2018-04-06T21:48:16.126Z,101883.00
2018-04-06T21:50:43.075Z,101878.43
2018-04-06T21:53:09.932Z,101876.72
2018-04-06T21:55:37.645Z,101879.45
2018-04-06T21:58:04.746Z,101878.69
2018-04-06T22:00:32.381Z,101878.72
2018-04-06T22:02:59.284Z,101870.63
2018-04-06T22:05:26.206Z,101862.55
2018-04-06T22:07:53.163Z,101868.25
2018-04-06T22:10:20.819Z,101864.75
2018-04-06T22:12:48.724Z,101861.33
2018-04-06T22:15:15.640Z,101864.13
2018-04-06T22:17:43.278Z,101871.89
2018-04-06T22:20:10.299Z,101865.61
2018-04-06T22:22:37.163Z,101866.85
2018-04-06T22:25:04.036Z,101862.28
2018-04-06T22:27:31.761Z,101870.13
2018-04-06T22:29:58.981Z,101878.69
2018-04-06T22:32:25.896Z,101869.58
2018-04-06T22:34:53.541Z,101877.73
2018-04-06T22:37:20.408Z,101870.93
2018-04-06T22:39:48.028Z,101875.97
2018-04-06T22:42:15.043Z,101873.53
2018-04-06T22:44:48.764Z,101868.41
2018-04-06T22:47:15.815Z,101872.17
2018-04-06T22:49:42.668Z,101874.61
2018-04-06T22:52:09.540Z,101877.50
2018-04-06T22:54:36.493Z,101881.23
2018-04-06T22:57:03.374Z,101885.00
2018-04-06T22:59:30.286Z,101883.95
2018-04-06T23:01:57.183Z,101885.66
2018-04-06T23:04:24.092Z,101880.37
2018-04-06T23:06:51.697Z,101877.41
2018-04-06T23:09:22.183Z,101874.58
2018-04-06T23:11:49.791Z,101873.85
2018-04-06T23:14:16.704Z,101862.11
2018-04-06T23:16:43.675Z,101860.11
2018-04-06T23:19:10.533Z,101862.89
2018-04-06T23:21:37.445Z,101860.60
2018-04-06T23:24:04.424Z,101858.58
2018-04-06T23:26:32.113Z,101860.23
2018-04-06T23:28:58.967Z,101857.14
2018-04-06T23:31:25.877Z,101857.72
2018-04-06T23:33:52.740Z,101846.27
2018-04-06T23:36:19.598Z,101842.36
2018-04-06T23:38:46.763Z,101836.38
2018-04-06T23:41:13.671Z,101834.75
2018-04-06T23:43:40.542Z,101836.29
2018-04-06T23:46:07.592Z,101832.12
2018-04-06T23:48:34.456Z,101834.03
2018-04-06T23:51:02.067Z,101831.00
2018-04-06T23:53:28.989Z,101829.26
2018-04-06T23:55:55.901Z,101832.19
2018-04-06T23:58:23.505Z,101828.36
